• Join FlightAware (Why Join?)
  • Login
  • US Flag 
04:21AM EDT


 

Airport Tracker/Info


-or-


 

Live Flight TrackerFlight Track Log ✈ N830QS ✈ 28-Jun-2013 ✈ KSFO - KTRK

Flight Track Log - Related Links

Times and Time Zones

All times are in EDT time to prevent confusion due to time zone crossing. See the N830QS flight status page for this flight to view local times or setup timezone preferences in your user account.

Time Position Orientation Groundspeed Altitude Reporting Facility
EDT Latitude Longitude Course Direction KTS MPH feet Rate Location/Type
08:42PM 37.6833 -122.2833 47° Northeast 244 281 4,200  Level Northern Cal TRACON
08:43PM 37.7333 -122.2333 38° Northeast 270 311 7,300 2,640 Climbing Northern Cal TRACON
08:45PM 37.8414 -122.1247 38° Northeast 306 352 11,700 2,460 Climbing Oakland Center
08:46PM 37.9114 -122.0586 37° Northeast 316 364 14,300 2,640 Climbing Oakland Center
08:47PM 38.0003 -121.9747 37° Northeast 333 383 17,200 2,520 Climbing Oakland Center
08:48PM 38.0761 -121.9011 37° Northeast 342 394 19,500 2,040 Climbing Oakland Center
08:49PM 38.1561 -121.8256 37° Northeast 355 409 21,400 1,860 Climbing Oakland Center
08:50PM 38.2375 -121.7489 36° Northeast 364 419 23,400 1,800 Climbing Oakland Center
08:51PM 38.3214 -121.6692 37° Northeast 374 430 25,100 1,560 Climbing Oakland Center
08:52PM 38.4064 -121.5875 37° Northeast 381 438 26,600 1,620 Climbing Oakland Center
08:53PM 38.5008 -121.4972 37° Northeast 380 437 28,500 1,020 Climbing Oakland Center
08:54PM 38.5956 -121.4017 38° Northeast 399 459 28,800 -780 Climbing Oakland Center
08:55PM 38.6875 -121.3106 38° Northeast 425 489 27,000 -1,860 Descending Oakland Center
08:56PM 38.7847 -121.2117 38° Northeast 437 503 25,000 -1,500 Descending Oakland Center
08:57PM 38.8764 -121.1186 38° Northeast 429 494 24,000 -540 Descending Oakland Center
08:58PM 38.9525 -121.0272 43° Northeast 394 453 24,000  Level Oakland Center
08:59PM 38.9911 -120.9022 68° East 376 433 24,000 -300 Level Oakland Center
09:00PM 39.0289 -120.7781 69° East 374 430 23,400 -1,500 Descending Oakland Center
09:02PM 39.0642 -120.6586 69° East 360 414 21,000 -3,120 Descending Oakland Center
09:03PM 39.1050 -120.5231 69° East 339 390 17,100 -3,360 Descending Oakland Center
09:04PM 39.1372 -120.4164 69° East 322 371 14,200 -2,220 Descending Oakland Center
09:05PM 39.1661 -120.3172 69° East 295 339 12,600 -1,200 Descending Oakland Center
09:06PM 39.2081 -120.2719 40° Northeast 240 276 11,800 -1,380 Descending Oakland Center
09:07PM 39.2747 -120.2703 North 234 269 9,800 -1,980 Descending Oakland Center